Time;durP1;ratioP1;P1;durP2;ratioP2;P2;SDS_P1;SDS_P2;PMS_P1;PMS_P2;Temp;Humidity;BMP_temperature;BMP_pressure;BME280_temperature;BME280_humidity;BME280_pressure;Samples;Min_cycle;Max_cycle;Signal;HPM_P1;HPM_P2
2023/03/29 00:00:50;;;;;;;3.25;1.80;;;14.60;44.00;;;;;;5089044;28;45435;-71
2023/03/29 00:03:17;;;;;;;1.50;1.40;;;14.60;44.10;;;;;;5089076;28;45290;-71
2023/03/29 00:05:44;;;;;;;1.52;1.30;;;14.60;44.10;;;;;;5088732;28;45470;-71
2023/03/29 00:08:13;;;;;;;1.80;1.50;;;14.60;44.00;;;;;;5088912;28;45330;-71
2023/03/29 00:10:40;;;;;;;2.28;1.60;;;14.60;44.20;;;;;;5088907;28;45328;-71
2023/03/29 00:13:06;;;;;;;1.63;1.23;;;14.60;44.20;;;;;;5089035;28;45365;-71
2023/03/29 00:15:33;;;;;;;2.58;1.40;;;14.60;44.30;;;;;;5088509;28;46520;-71
2023/03/29 00:18:01;;;;;;;2.10;1.50;;;14.50;44.30;;;;;;5088581;28;45368;-71
2023/03/29 00:20:28;;;;;;;2.50;1.52;;;14.50;44.30;;;;;;5088766;28;45198;-71
2023/03/29 00:22:55;;;;;;;1.80;1.60;;;14.50;44.30;;;;;;5088749;28;45410;-71
2023/03/29 00:25:22;;;;;;;2.00;1.48;;;14.50;44.40;;;;;;5088099;28;45576;-71
2023/03/29 00:27:49;;;;;;;2.17;1.35;;;14.50;44.40;;;;;;5088271;28;45150;-71
2023/03/29 00:30:16;;;;;;;2.58;1.58;;;14.50;45.00;;;;;;5088678;28;45262;-71
2023/03/29 00:32:43;;;;;;;2.63;1.48;;;14.50;44.40;;;;;;5088692;28;45285;-71
2023/03/29 00:35:11;;;;;;;1.67;1.42;;;14.50;44.40;;;;;;5088165;28;46647;-71
2023/03/29 00:37:38;;;;;;;2.10;1.35;;;14.50;44.50;;;;;;5088381;28;45416;-71
2023/03/29 00:40:08;;;;;;;1.73;1.25;;;14.50;45.00;;;;;;5088466;28;45272;-71
2023/03/29 00:42:35;;;;;;;2.75;1.52;;;14.50;44.50;;;;;;5088409;28;45499;-71
2023/03/29 00:45:04;;;;;;;1.98;1.20;;;14.50;44.60;;;;;;5088168;28;45531;-71
2023/03/29 00:47:33;;;;;;;1.38;1.23;;;14.50;44.70;;;;;;5087957;28;45263;-71
2023/03/29 00:50:01;;;;;;;3.03;1.27;;;14.50;44.60;;;;;;5088259;28;45333;-70
2023/03/29 00:52:30;;;;;;;2.70;1.60;;;14.40;44.60;;;;;;5088063;27;45309;-71
2023/03/29 00:54:59;;;;;;;1.42;1.15;;;14.50;44.60;;;;;;5088134;28;47290;-71
2023/03/29 00:57:25;;;;;;;1.42;1.10;;;14.40;44.60;;;;;;5087808;28;45352;-71
2023/03/29 00:59:52;;;;;;;1.38;1.27;;;14.40;44.60;;;;;;5088099;28;45271;-71
2023/03/29 01:02:21;;;;;;;1.33;1.20;;;14.40;44.60;;;;;;5088351;28;45206;-71
2023/03/29 01:04:49;;;;;;;1.30;1.20;;;14.40;44.80;;;;;;5087692;28;45466;-71
2023/03/29 01:07:20;;;;;;;1.50;1.38;;;14.40;44.60;;;;;;5087634;28;45523;-71
2023/03/29 01:09:50;;;;;;;2.75;1.40;;;14.40;44.60;;;;;;5088045;28;45286;-71
2023/03/29 01:12:19;;;;;;;1.67;1.02;;;14.40;44.70;;;;;;5088046;28;45425;-71
2023/03/29 01:14:48;;;;;;;1.38;1.13;;;14.40;45.30;;;;;;5087598;28;46614;-71
2023/03/29 01:17:15;;;;;;;1.42;1.10;;;14.40;44.80;;;;;;5087620;28;45297;-71
2023/03/29 01:19:44;;;;;;;1.27;1.00;;;14.40;44.70;;;;;;5087711;28;45434;-71
2023/03/29 01:22:15;;;;;;;1.65;1.00;;;14.40;44.80;;;;;;5087946;28;45430;-71
2023/03/29 01:24:55;;;;;;;1.58;1.45;;;14.40;44.70;;;;;;5087501;28;46198;-71
2023/03/29 01:27:41;;;;;;;1.25;1.15;;;14.40;44.80;;;;;;5087415;28;45375;-71
2023/03/29 01:30:09;;;;;;;1.45;1.35;;;14.30;44.80;;;;;;5087734;28;45285;-72
2023/03/29 01:32:38;;;;;;;1.38;1.08;;;14.30;44.80;;;;;;5087687;28;45341;-71
2023/03/29 01:35:09;;;;;;;1.35;1.10;;;14.40;44.90;;;;;;5087295;28;46628;-71
2023/03/29 01:37:37;;;;;;;1.40;1.30;;;14.40;44.90;;;;;;5087290;28;45359;-71
2023/03/29 01:40:04;;;;;;;1.48;1.20;;;14.30;44.90;;;;;;5087538;28;45317;-71
2023/03/29 01:42:35;;;;;;;1.48;1.17;;;14.30;44.80;;;;;;5087578;28;45297;-71
2023/03/29 01:45:09;;;;;;;2.95;1.38;;;14.30;44.80;;;;;;5087110;28;45755;-71
2023/03/29 01:47:40;;;;;;;1.58;1.20;;;14.30;44.90;;;;;;5087214;28;45336;-71
2023/03/29 01:50:09;;;;;;;1.38;1.17;;;14.30;44.90;;;;;;5087311;28;45233;-71
2023/03/29 01:52:38;;;;;;;3.13;1.50;;;14.30;44.90;;;;;;5084669;28;45515;-71
2023/03/29 01:55:08;;;;;;;2.55;1.08;;;14.30;45.00;;;;;;5087132;28;46857;-71
2023/03/29 01:57:35;;;;;;;1.15;1.05;;;14.30;45.00;;;;;;5087104;28;45455;-70
2023/03/29 02:00:10;;;;;;;1.65;1.33;;;14.30;45.00;;;;;;5087187;28;45463;-71
2023/03/29 02:02:39;;;;;;;1.67;1.20;;;14.30;45.00;;;;;;5087301;28;45363;-71
2023/03/29 02:05:08;;;;;;;1.30;1.10;;;14.30;44.90;;;;;;5086029;28;46408;-71
2023/03/29 02:07:37;;;;;;;1.33;1.23;;;14.30;45.00;;;;;;5086938;28;45394;-71
2023/03/29 02:10:04;;;;;;;1.35;1.23;;;14.30;45.00;;;;;;5086957;28;45316;-71
2023/03/29 02:12:31;;;;;;;2.28;1.20;;;14.30;45.00;;;;;;5087235;28;45321;-71
2023/03/29 02:14:58;;;;;;;2.50;1.40;;;14.30;45.00;;;;;;5086742;28;46493;-71
2023/03/29 02:17:26;;;;;;;1.20;1.10;;;14.30;45.10;;;;;;5086566;28;45349;-71
2023/03/29 02:19:56;;;;;;;1.50;1.27;;;14.30;45.00;;;;;;5086928;28;45314;-71
2023/03/29 02:22:24;;;;;;;1.10;1.00;;;14.30;45.00;;;;;;5086997;28;45583;-71
2023/03/29 02:24:52;;;;;;;2.70;1.20;;;14.30;45.00;;;;;;5086084;28;46795;-71
2023/03/29 02:27:18;;;;;;;1.30;1.20;;;14.30;45.10;;;;;;5086449;28;45231;-71
2023/03/29 02:29:46;;;;;;;1.30;1.20;;;14.30;45.00;;;;;;5086513;28;45128;-71
2023/03/29 02:32:15;;;;;;;1.67;1.20;;;14.20;44.90;;;;;;5086996;28;45274;-72
2023/03/29 02:34:46;;;;;;;1.92;1.20;;;14.20;45.00;;;;;;5086484;28;45452;-72
2023/03/29 02:37:17;;;;;;;1.25;0.88;;;14.20;45.00;;;;;;5086370;28;45312;-71
2023/03/29 02:39:46;;;;;;;1.05;0.95;;;14.20;44.90;;;;;;5086500;28;45276;-71
2023/03/29 02:42:15;;;;;;;1.38;1.08;;;14.20;45.00;;;;;;5086713;28;45404;-71
2023/03/29 02:44:42;;;;;;;1.17;1.08;;;14.20;45.10;;;;;;5085579;28;46416;-71
2023/03/29 02:47:13;;;;;;;1.35;1.00;;;14.20;45.10;;;;;;5086072;28;45262;-71
2023/03/29 02:49:39;;;;;;;1.20;1.10;;;14.20;45.10;;;;;;5086359;28;45266;-72
2023/03/29 02:52:08;;;;;;;1.10;0.95;;;14.20;45.20;;;;;;5086719;28;45423;-71
2023/03/29 02:54:36;;;;;;;3.00;1.17;;;14.20;45.10;;;;;;5085942;28;46428;-71
2023/03/29 02:57:05;;;;;;;1.08;1.00;;;14.20;45.10;;;;;;5086177;28;45339;-71
2023/03/29 02:59:32;;;;;;;1.02;0.88;;;14.20;45.20;;;;;;5086288;28;45364;-71
2023/03/29 03:01:59;;;;;;;0.70;0.70;;;14.20;45.10;;;;;;5086371;28;45384;-71
2023/03/29 03:04:26;;;;;;;1.17;1.08;;;14.20;45.20;;;;;;5085885;28;47002;-71
2023/03/29 03:06:53;;;;;;;1.10;1.00;;;14.20;45.00;;;;;;5085924;28;45253;-71
2023/03/29 03:09:19;;;;;;;1.55;1.15;;;14.20;45.20;;;;;;5085947;28;45285;-71
2023/03/29 03:11:48;;;;;;;1.60;1.10;;;14.20;45.00;;;;;;5086242;28;45322;-71
2023/03/29 03:14:15;;;;;;;1.45;1.05;;;14.20;45.10;;;;;;5085735;28;46424;-71
2023/03/29 03:16:42;;;;;;;0.90;0.90;;;14.20;45.00;;;;;;5085836;28;45416;-71
2023/03/29 03:19:09;;;;;;;2.05;1.20;;;14.20;44.90;;;;;;5085955;28;45327;-71
2023/03/29 03:21:36;;;;;;;1.50;0.98;;;14.20;44.90;;;;;;5086076;28;45300;-71
2023/03/29 03:24:03;;;;;;;1.95;1.13;;;14.20;45.10;;;;;;5085604;28;46452;-72
2023/03/29 03:26:30;;;;;;;1.38;0.80;;;14.20;45.00;;;;;;5085016;28;45383;-71
2023/03/29 03:28:58;;;;;;;1.25;1.17;;;14.20;45.00;;;;;;5085686;28;45268;-71
2023/03/29 03:31:27;;;;;;;1.20;0.95;;;14.20;44.90;;;;;;5086013;28;45326;-72
2023/03/29 03:33:54;;;;;;;1.38;0.90;;;14.20;45.00;;;;;;5085660;28;47403;-71
2023/03/29 03:36:25;;;;;;;1.35;0.80;;;14.20;45.00;;;;;;5085432;28;45388;-71
2023/03/29 03:38:52;;;;;;;1.00;1.00;;;14.20;44.90;;;;;;5085786;28;45398;-71
2023/03/29 03:41:18;;;;;;;1.05;0.80;;;14.20;45.00;;;;;;5085834;28;45457;-71
2023/03/29 03:43:47;;;;;;;1.20;1.10;;;14.20;45.00;;;;;;5085338;28;46393;-71
2023/03/29 03:46:16;;;;;;;1.10;0.90;;;14.20;45.20;;;;;;5085465;28;45344;-71
2023/03/29 03:48:43;;;;;;;1.60;1.00;;;14.20;44.90;;;;;;5085554;28;45393;-71
2023/03/29 03:51:10;;;;;;;1.30;1.15;;;14.20;45.00;;;;;;5085762;28;45352;-71
2023/03/29 03:53:36;;;;;;;1.10;0.80;;;14.20;45.50;;;;;;5085381;28;45482;-71
2023/03/29 03:56:07;;;;;;;1.00;0.93;;;14.20;45.00;;;;;;5085234;28;45339;-71
2023/03/29 03:58:34;;;;;;;1.08;0.80;;;14.20;45.00;;;;;;5085657;28;45398;-71
2023/03/29 04:01:01;;;;;;;1.20;0.90;;;14.20;44.90;;;;;;5085589;28;45366;-71
2023/03/29 04:03:30;;;;;;;1.65;0.90;;;14.20;45.00;;;;;;5085277;28;45471;-71
2023/03/29 04:05:59;;;;;;;0.85;0.73;;;14.20;45.10;;;;;;5085089;28;45522;-71
2023/03/29 04:08:26;;;;;;;0.82;0.82;;;14.20;45.00;;;;;;5085430;28;45212;-71
2023/03/29 04:10:55;;;;;;;0.95;0.80;;;14.20;45.00;;;;;;5085485;28;45265;-71
2023/03/29 04:13:22;;;;;;;0.90;0.90;;;14.20;44.90;;;;;;5085108;28;45348;-71
2023/03/29 04:15:52;;;;;;;0.90;0.90;;;14.20;44.90;;;;;;5084927;28;45364;-71
2023/03/29 04:18:19;;;;;;;1.17;1.08;;;14.20;45.00;;;;;;5085109;28;45295;-71
2023/03/29 04:20:47;;;;;;;1.20;0.93;;;14.20;45.00;;;;;;5085282;28;45312;-71
2023/03/29 04:23:15;;;;;;;0.82;0.73;;;14.20;44.80;;;;;;5084952;28;45320;-71
2023/03/29 04:25:41;;;;;;;0.88;0.70;;;14.20;45.10;;;;;;5084412;28;45291;-71
2023/03/29 04:28:09;;;;;;;0.75;0.70;;;14.20;45.00;;;;;;5086879;27;45323;-70
2023/03/29 04:30:36;;;;;;;1.20;0.90;;;14.20;45.00;;;;;;5088441;28;45403;-71
2023/03/29 04:33:03;;;;;;;1.10;0.80;;;14.20;45.00;;;;;;5088407;28;47440;-71
2023/03/29 04:35:30;;;;;;;0.98;0.90;;;14.20;44.80;;;;;;5088140;28;45308;-71
2023/03/29 04:37:58;;;;;;;0.85;0.77;;;14.20;44.90;;;;;;5088272;28;45397;-71
2023/03/29 04:40:25;;;;;;;1.00;0.90;;;14.20;45.00;;;;;;5088496;28;45323;-71
2023/03/29 04:42:53;;;;;;;1.10;0.73;;;14.20;45.00;;;;;;5088006;28;46412;-71
2023/03/29 04:45:20;;;;;;;1.48;0.98;;;14.20;45.10;;;;;;5087968;28;45225;-71
2023/03/29 04:47:47;;;;;;;0.80;0.80;;;14.20;45.20;;;;;;5088096;28;45501;-71
2023/03/29 04:50:14;;;;;;;1.15;0.80;;;14.20;45.10;;;;;;5088390;28;45536;-71
2023/03/29 04:52:41;;;;;;;1.02;0.82;;;14.20;45.10;;;;;;5087958;28;46422;-71
2023/03/29 04:55:10;;;;;;;1.15;1.00;;;14.20;45.00;;;;;;5087842;28;45406;-71
2023/03/29 04:57:37;;;;;;;0.98;0.98;;;14.20;44.90;;;;;;5088232;28;45481;-70
2023/03/29 05:00:13;;;;;;;0.90;0.90;;;14.20;45.10;;;;;;5088244;28;45230;-71
2023/03/29 05:02:41;;;;;;;1.00;0.90;;;14.20;45.20;;;;;;5087983;28;46969;-71
2023/03/29 05:05:08;;;;;;;0.88;0.70;;;14.20;45.00;;;;;;5087798;28;45364;-70
2023/03/29 05:07:38;;;;;;;0.80;0.75;;;14.20;44.90;;;;;;5088070;28;45317;-71
2023/03/29 05:10:07;;;;;;;0.75;0.75;;;14.20;45.00;;;;;;5087805;28;45551;-71
2023/03/29 05:12:35;;;;;;;1.02;0.82;;;14.20;45.10;;;;;;5087819;28;47104;-71
2023/03/29 05:15:02;;;;;;;0.60;0.60;;;14.20;45.10;;;;;;5087510;28;45308;-71
2023/03/29 05:17:30;;;;;;;0.95;0.88;;;14.20;45.20;;;;;;5087833;28;45336;-71
2023/03/29 05:19:57;;;;;;;1.98;0.98;;;14.20;45.10;;;;;;5087844;28;45545;-71
2023/03/29 05:22:24;;;;;;;1.30;0.80;;;14.20;45.10;;;;;;5087468;28;45377;-71
2023/03/29 05:24:51;;;;;;;0.85;0.80;;;14.20;45.00;;;;;;5087004;28;45296;-71
2023/03/29 05:27:18;;;;;;;0.98;0.90;;;14.20;45.20;;;;;;5087354;28;45413;-71
2023/03/29 05:29:46;;;;;;;1.35;1.00;;;14.20;45.10;;;;;;5087678;28;45285;-71
2023/03/29 05:32:13;;;;;;;0.82;0.80;;;14.20;45.00;;;;;;5087344;28;46736;-71
2023/03/29 05:34:40;;;;;;;0.80;0.80;;;14.20;45.10;;;;;;5087394;28;45364;-71
2023/03/29 05:37:07;;;;;;;0.80;0.80;;;14.20;45.00;;;;;;5087426;28;45283;-72
2023/03/29 05:39:36;;;;;;;0.75;0.65;;;14.20;45.20;;;;;;5086281;28;45303;-71
2023/03/29 05:42:03;;;;;;;0.80;0.73;;;14.20;45.10;;;;;;5086991;28;46666;-72
2023/03/29 05:44:30;;;;;;;0.73;0.73;;;14.20;45.00;;;;;;5087329;28;45399;-71
2023/03/29 05:46:58;;;;;;;0.77;0.77;;;14.20;45.00;;;;;;5087118;28;45362;-71
2023/03/29 05:49:25;;;;;;;0.75;0.75;;;14.30;45.20;;;;;;5087292;28;45237;-71
2023/03/29 05:51:55;;;;;;;0.85;0.85;;;14.30;45.10;;;;;;5087043;28;45335;-72
2023/03/29 05:54:22;;;;;;;0.75;0.68;;;14.30;45.10;;;;;;5086929;28;45620;-71
2023/03/29 05:56:50;;;;;;;0.90;0.73;;;14.30;45.00;;;;;;5087104;28;45282;-71
2023/03/29 05:59:18;;;;;;;1.27;0.90;;;14.30;44.90;;;;;;5087246;28;45534;-71
2023/03/29 06:01:45;;;;;;;0.70;0.70;;;14.30;44.70;;;;;;5086841;28;45383;-71
2023/03/29 06:04:14;;;;;;;0.77;0.77;;;14.30;44.80;;;;;;5086838;28;45355;-72
2023/03/29 06:06:40;;;;;;;0.88;0.88;;;14.30;44.90;;;;;;5086932;28;45303;-71
2023/03/29 06:09:08;;;;;;;0.57;0.57;;;14.30;44.90;;;;;;5086872;28;45308;-71
2023/03/29 06:11:35;;;;;;;0.80;0.60;;;14.20;44.90;;;;;;5086042;28;46624;-71
2023/03/29 06:14:02;;;;;;;0.73;0.73;;;14.30;44.80;;;;;;5086605;28;45409;-71
2023/03/29 06:16:29;;;;;;;0.70;0.65;;;14.30;44.80;;;;;;5086714;28;45373;-71
2023/03/29 06:18:56;;;;;;;1.10;0.80;;;14.30;44.90;;;;;;5086822;28;45170;-72
2023/03/29 06:21:25;;;;;;;0.88;0.88;;;14.30;44.60;;;;;;5086571;28;45703;-72
2023/03/29 06:23:52;;;;;;;1.00;0.90;;;14.30;44.80;;;;;;5086424;28;45346;-72
2023/03/29 06:26:19;;;;;;;1.00;0.80;;;14.30;44.60;;;;;;5086322;28;45296;-71
2023/03/29 06:28:46;;;;;;;0.75;0.75;;;14.30;44.80;;;;;;5086833;28;45406;-71
2023/03/29 06:31:13;;;;;;;1.45;0.88;;;14.30;44.70;;;;;;5086254;28;45317;-71
2023/03/29 06:33:42;;;;;;;1.90;0.90;;;14.30;44.60;;;;;;5086409;28;45363;-71
2023/03/29 06:36:09;;;;;;;0.73;0.70;;;14.30;44.60;;;;;;5086403;28;45292;-71
2023/03/29 06:38:38;;;;;;;0.90;0.90;;;14.30;44.70;;;;;;5086677;28;45199;-71
2023/03/29 06:41:06;;;;;;;0.77;0.70;;;14.30;44.70;;;;;;5086264;28;45501;-72
2023/03/29 06:43:33;;;;;;;0.70;0.70;;;14.40;44.60;;;;;;5086233;28;45373;-71
2023/03/29 06:46:00;;;;;;;0.80;0.80;;;14.40;44.50;;;;;;5086330;28;45247;-71
2023/03/29 06:48:27;;;;;;;0.75;0.60;;;14.40;44.50;;;;;;5086552;28;45320;-71
2023/03/29 06:50:54;;;;;;;1.17;0.70;;;14.40;44.50;;;;;;5085559;27;46690;-71
2023/03/29 06:53:21;;;;;;;1.02;0.73;;;14.40;44.60;;;;;;5086093;28;45371;-71
2023/03/29 06:55:50;;;;;;;2.45;0.80;;;14.40;44.40;;;;;;5086169;28;45250;-71
2023/03/29 06:58:17;;;;;;;0.75;0.70;;;14.40;44.40;;;;;;5086254;28;45372;-71
2023/03/29 07:00:44;;;;;;;1.58;0.80;;;14.50;44.30;;;;;;5085749;28;46375;-71
2023/03/29 07:03:18;;;;;;;1.33;0.80;;;14.50;44.40;;;;;;5085889;28;45335;-71
2023/03/29 07:05:45;;;;;;;1.45;0.70;;;14.50;44.30;;;;;;5086201;28;45485;-71
2023/03/29 07:08:14;;;;;;;1.70;0.90;;;14.50;44.30;;;;;;5086079;28;45565;-71
2023/03/29 07:10:42;;;;;;;0.88;0.82;;;14.50;44.20;;;;;;5086551;27;45609;-71
2023/03/29 07:13:12;;;;;;;0.70;0.60;;;14.50;44.30;;;;;;5095642;27;45475;-71
2023/03/29 07:15:39;;;;;;;0.57;0.57;;;14.50;44.40;;;;;;5106058;27;45339;-71
2023/03/29 07:18:05;;;;;;;0.70;0.70;;;14.50;44.50;;;;;;5104659;27;45263;-71
2023/03/29 07:20:32;;;;;;;0.95;0.80;;;14.50;44.60;;;;;;5093282;27;45470;-71
2023/03/29 07:22:59;;;;;;;1.30;0.82;;;14.50;44.50;;;;;;5084639;27;45825;-71
2023/03/29 07:25:26;;;;;;;1.05;0.90;;;14.50;44.80;;;;;;5095897;27;45383;-71
2023/03/29 07:27:53;;;;;;;0.77;0.70;;;14.60;44.70;;;;;;5086957;27;45380;-71
2023/03/29 07:30:22;;;;;;;0.73;0.60;;;14.60;44.80;;;;;;5085375;27;46548;-71
2023/03/29 07:32:49;;;;;;;2.67;0.90;;;14.60;44.80;;;;;;5092471;27;45427;-71
2023/03/29 07:35:17;;;;;;;1.00;0.70;;;14.60;44.80;;;;;;5106153;27;45404;-71
2023/03/29 07:37:44;;;;;;;0.70;0.70;;;14.60;44.80;;;;;;5090639;27;45613;-71
2023/03/29 07:40:14;;;;;;;0.60;0.60;;;14.60;44.70;;;;;;5093606;27;46413;-71
2023/03/29 07:42:42;;;;;;;0.60;0.60;;;14.60;44.80;;;;;;5104262;27;45313;-71
2023/03/29 07:45:10;;;;;;;0.65;0.65;;;14.60;44.90;;;;;;5102066;27;45350;-71
2023/03/29 07:47:38;;;;;;;1.42;0.77;;;14.60;44.80;;;;;;5101289;27;45482;-71
2023/03/29 07:50:06;;;;;;;2.92;1.00;;;14.60;44.80;;;;;;5069173;27;45493;-71
2023/03/29 07:52:33;;;;;;;0.80;0.80;;;14.60;44.70;;;;;;5097945;27;45340;-71
2023/03/29 07:55:00;;;;;;;0.77;0.60;;;14.70;44.70;;;;;;5082262;27;45453;-71
2023/03/29 07:57:27;;;;;;;1.77;0.82;;;14.70;44.70;;;;;;5085345;27;45254;-71
2023/03/29 07:59:54;;;;;;;0.70;0.70;;;14.70;44.60;;;;;;5086039;27;45376;-71
2023/03/29 08:02:21;;;;;;;0.60;0.60;;;14.70;44.60;;;;;;5103762;27;45326;-71
2023/03/29 08:04:49;;;;;;;1.08;0.60;;;14.70;44.60;;;;;;5102600;27;45341;-71
2023/03/29 08:07:17;;;;;;;1.60;0.70;;;14.70;44.70;;;;;;5089999;27;45242;-70
2023/03/29 08:09:44;;;;;;;0.57;0.52;;;14.70;44.80;;;;;;5088365;27;46471;-72
2023/03/29 08:12:11;;;;;;;0.82;0.70;;;14.70;44.50;;;;;;5103382;27;45347;-71
2023/03/29 08:14:38;;;;;;;0.95;0.80;;;14.80;44.60;;;;;;5109057;27;45380;-71
2023/03/29 08:17:05;;;;;;;1.38;0.80;;;14.80;44.60;;;;;;5103817;27;45369;-72
2023/03/29 08:19:32;;;;;;;0.88;0.88;;;14.80;44.40;;;;;;5095990;27;46649;-71
2023/03/29 08:22:00;;;;;;;1.13;1.00;;;14.80;44.50;;;;;;5108878;27;45402;-71
2023/03/29 08:24:27;;;;;;;1.63;0.85;;;14.80;44.40;;;;;;5099704;27;45399;-71
2023/03/29 08:26:54;;;;;;;0.75;0.65;;;14.90;44.40;;;;;;5105964;27;45391;-71
2023/03/29 08:29:21;;;;;;;1.13;0.70;;;14.90;44.30;;;;;;5089435;27;46382;-72
2023/03/29 08:31:48;;;;;;;0.55;0.55;;;14.90;44.30;;;;;;5107021;27;45255;-71
2023/03/29 08:34:14;;;;;;;1.85;0.85;;;15.00;44.20;;;;;;5100605;27;45498;-71
2023/03/29 08:36:41;;;;;;;4.78;0.90;;;15.00;44.30;;;;;;5088050;27;45396;-71
2023/03/29 08:39:13;;;;;;;1.20;0.63;;;15.00;44.20;;;;;;5108737;27;47320;-71
2023/03/29 08:41:46;;;;;;;3.08;1.00;;;15.00;44.30;;;;;;5105870;27;45506;-71
2023/03/29 08:44:20;;;;;;;1.17;0.73;;;15.00;44.30;;;;;;5089800;27;45423;-71
2023/03/29 08:46:51;;;;;;;2.28;0.75;;;15.00;44.30;;;;;;5106235;27;45512;-71
2023/03/29 08:49:17;;;;;;;0.70;0.70;;;15.00;44.30;;;;;;5108405;27;47854;-71
2023/03/29 08:51:45;;;;;;;0.80;0.60;;;15.00;44.40;;;;;;5089803;27;45432;-71
2023/03/29 08:54:15;;;;;;;1.88;0.70;;;15.10;44.30;;;;;;5099137;27;45450;-71
2023/03/29 08:56:42;;;;;;;2.53;0.93;;;15.00;44.30;;;;;;5104010;27;45382;-71
2023/03/29 08:59:15;;;;;;;1.27;0.52;;;15.00;44.30;;;;;;5097701;27;45466;-72
2023/03/29 09:01:42;;;;;;;0.75;0.75;;;15.10;44.20;;;;;;5087759;28;45341;-72
2023/03/29 09:04:11;;;;;;;1.00;0.85;;;15.10;44.10;;;;;;5094365;27;45543;-71
2023/03/29 09:06:39;;;;;;;0.68;0.65;;;15.10;44.20;;;;;;5093452;27;45265;-71
2023/03/29 09:09:14;;;;;;;0.70;0.70;;;15.10;44.20;;;;;;5096874;27;45543;-71
2023/03/29 09:11:49;;;;;;;0.50;0.50;;;15.10;44.10;;;;;;5105493;27;45402;-71
2023/03/29 09:14:46;;;;;;;0.63;0.63;;;15.10;44.30;;;;;;5095520;27;45343;-72
2023/03/29 09:17:17;;;;;;;2.35;0.77;;;15.10;44.40;;;;;;5083262;27;45487;-71
2023/03/29 09:19:47;;;;;;;0.70;0.70;;;15.10;44.10;;;;;;5087363;28;46681;-71
2023/03/29 09:22:16;;;;;;;0.95;0.90;;;15.20;44.20;;;;;;5088510;27;45419;-71
2023/03/29 09:25:02;;;;;;;1.95;0.75;;;15.20;44.20;;;;;;5086823;27;45269;-71
2023/03/29 09:27:31;;;;;;;0.85;0.68;;;15.20;44.20;;;;;;5073972;27;45475;-71
2023/03/29 09:30:09;;;;;;;0.98;0.73;;;15.20;44.20;;;;;;5077291;27;45664;-71
2023/03/29 09:32:39;;;;;;;1.33;0.63;;;15.20;44.10;;;;;;5071558;27;45886;-71
2023/03/29 09:35:13;;;;;;;0.80;0.80;;;15.20;44.10;;;;;;5090063;27;45338;-71
2023/03/29 09:37:40;;;;;;;1.42;0.60;;;15.30;44.00;;;;;;5087550;28;45312;-71
2023/03/29 09:40:10;;;;;;;3.72;0.80;;;15.30;44.00;;;;;;5087132;28;45635;-71
2023/03/29 09:42:37;;;;;;;1.05;0.90;;;15.30;44.40;;;;;;5087051;28;45319;-72
2023/03/29 09:45:07;;;;;;;2.08;0.68;;;15.30;43.80;;;;;;5087253;28;45335;-72
2023/03/29 09:47:35;;;;;;;4.35;0.90;;;15.30;43.70;;;;;;5087253;28;45281;-71
2023/03/29 09:50:04;;;;;;;0.70;0.70;;;15.30;44.50;;;;;;5086866;28;46652;-71
2023/03/29 09:52:31;;;;;;;0.90;0.85;;;15.40;43.70;;;;;;5087253;28;45452;-71
2023/03/29 09:54:58;;;;;;;0.70;0.70;;;15.40;44.40;;;;;;5087409;28;45513;-72
2023/03/29 09:57:27;;;;;;;0.70;0.70;;;15.40;43.70;;;;;;5087247;28;45396;-71
2023/03/29 09:59:53;;;;;;;1.83;0.85;;;15.40;43.60;;;;;;5086760;28;46422;-71
2023/03/29 10:02:20;;;;;;;0.70;0.70;;;15.40;43.70;;;;;;5086860;28;45314;-72
2023/03/29 10:04:54;;;;;;;2.25;0.82;;;15.40;43.70;;;;;;5086899;28;45383;-72
2023/03/29 10:07:21;;;;;;;1.10;0.80;;;15.50;43.40;;;;;;5086940;28;45274;-71
2023/03/29 10:09:49;;;;;;;1.05;0.82;;;15.50;43.70;;;;;;5086659;28;46643;-71
2023/03/29 10:12:16;;;;;;;0.75;0.75;;;15.50;43.60;;;;;;5086578;28;45270;-72
2023/03/29 10:14:45;;;;;;;2.75;0.80;;;15.50;43.60;;;;;;5086960;28;45320;-72
2023/03/29 10:17:15;;;;;;;1.90;0.70;;;15.50;43.60;;;;;;5086794;28;45401;-71
2023/03/29 10:19:48;;;;;;;3.42;1.05;;;15.50;43.70;;;;;;5086506;28;45339;-71
2023/03/29 10:22:17;;;;;;;3.90;0.80;;;15.50;43.60;;;;;;5086550;28;45360;-71
2023/03/29 10:24:47;;;;;;;2.25;1.00;;;15.50;43.60;;;;;;5085318;27;45385;-72
2023/03/29 10:27:14;;;;;;;0.90;0.85;;;15.50;43.60;;;;;;5066330;28;45313;-71
2023/03/29 10:29:41;;;;;;;0.80;0.80;;;15.50;43.50;;;;;;5074740;28;46383;-71
2023/03/29 10:32:26;;;;;;;0.80;0.80;;;15.50;43.60;;;;;;5087502;27;45331;-71
2023/03/29 10:34:53;;;;;;;2.00;0.80;;;15.50;43.60;;;;;;5102887;27;45501;-70
2023/03/29 10:37:20;;;;;;;0.77;0.60;;;15.50;43.60;;;;;;5066114;28;45570;-70
2023/03/29 10:39:47;;;;;;;2.72;0.80;;;15.60;43.60;;;;;;5082813;27;45442;-71
2023/03/29 10:42:15;;;;;;;0.88;0.65;;;15.60;43.70;;;;;;5102328;27;45385;-70
2023/03/29 10:44:42;;;;;;;2.17;0.90;;;15.60;43.80;;;;;;5091878;27;45245;-72
2023/03/29 10:47:12;;;;;;;0.70;0.70;;;15.60;43.90;;;;;;5102147;27;45411;-71
2023/03/29 10:49:45;;;;;;;2.80;0.75;;;15.60;43.90;;;;;;5104682;27;46633;-71
2023/03/29 10:52:13;;;;;;;1.45;0.60;;;15.70;44.00;;;;;;5095425;27;45416;-71
2023/03/29 10:54:40;;;;;;;4.15;0.82;;;15.70;43.90;;;;;;5069049;28;45245;-71
2023/03/29 10:57:09;;;;;;;0.60;0.60;;;15.70;43.90;;;;;;5065813;28;45323;-70
2023/03/29 10:59:40;;;;;;;2.05;0.68;;;15.70;44.10;;;;;;5078417;27;46323;-71
2023/03/29 11:02:44;;;;;;;1.48;0.65;;;15.70;44.00;;;;;;5087089;27;45281;-71
2023/03/29 11:05:27;;;;;;;4.35;0.82;;;15.70;44.00;;;;;;5102328;27;45328;-70
2023/03/29 11:08:17;;;;;;;0.75;0.70;;;15.80;44.00;;;;;;5106485;27;45436;-70
2023/03/29 11:10:49;;;;;;;1.05;0.70;;;15.80;44.10;;;;;;5103861;27;45457;-71
2023/03/29 11:13:19;;;;;;;1.65;0.70;;;15.80;44.50;;;;;;5106349;27;45357;-71
2023/03/29 11:15:52;;;;;;;1.08;0.80;;;15.90;44.00;;;;;;5105777;27;45557;-71
2023/03/29 11:18:30;;;;;;;3.22;0.85;;;15.90;44.00;;;;;;5104687;27;45332;-71
2023/03/29 11:21:01;;;;;;;0.80;0.80;;;15.90;44.00;;;;;;5098782;27;46328;-72
2023/03/29 11:23:36;;;;;;;2.85;0.90;;;15.90;43.90;;;;;;5094539;27;45483;-71
2023/03/29 11:26:08;;;;;;;0.60;0.60;;;16.00;44.00;;;;;;5093451;27;45273;-71
2023/03/29 11:28:38;;;;;;;1.77;1.05;;;16.00;43.90;;;;;;5085746;27;45502;-71
2023/03/29 11:31:09;;;;;;;2.65;0.80;;;16.10;43.70;;;;;;5080973;27;46773;-71
2023/03/29 11:33:41;;;;;;;1.40;0.88;;;16.10;43.90;;;;;;5103954;27;45339;-71
2023/03/29 11:36:12;;;;;;;2.13;0.70;;;16.20;43.80;;;;;;5085909;27;45402;-71
2023/03/29 11:38:41;;;;;;;1.25;0.98;;;16.20;43.70;;;;;;5089624;27;45462;-71
2023/03/29 11:41:12;;;;;;;0.85;0.80;;;16.30;43.40;;;;;;5096828;27;45505;-71
2023/03/29 11:43:41;;;;;;;1.30;0.73;;;16.30;43.30;;;;;;5095285;27;45298;-71
2023/03/29 11:46:09;;;;;;;1.08;0.90;;;16.40;43.20;;;;;;5109255;27;45411;-71
2023/03/29 11:48:39;;;;;;;1.65;0.80;;;16.50;43.00;;;;;;5108059;27;45405;-71
2023/03/29 11:51:10;;;;;;;0.60;0.60;;;16.60;43.00;;;;;;5109075;27;46408;-71
2023/03/29 11:53:42;;;;;;;1.85;0.80;;;16.60;43.00;;;;;;5093788;27;45435;-72
2023/03/29 11:56:12;;;;;;;0.70;0.70;;;16.60;43.00;;;;;;5106034;27;45620;-71
2023/03/29 11:58:41;;;;;;;2.35;0.85;;;16.60;42.90;;;;;;5069046;28;45178;-71
2023/03/29 12:01:10;;;;;;;1.60;0.68;;;16.60;42.80;;;;;;5069114;27;45537;-71
2023/03/29 12:03:38;;;;;;;0.82;0.65;;;16.60;42.90;;;;;;5107631;27;45592;-71
2023/03/29 12:06:08;;;;;;;0.65;0.65;;;16.60;42.90;;;;;;5107956;27;45312;-71
2023/03/29 12:08:38;;;;;;;1.98;0.93;;;16.70;42.90;;;;;;5108597;27;45288;-72
2023/03/29 12:11:07;;;;;;;3.30;0.90;;;16.70;42.80;;;;;;5097432;27;45542;-72
2023/03/29 12:13:34;;;;;;;0.70;0.70;;;16.80;42.90;;;;;;5088881;27;45278;-72
2023/03/29 12:16:04;;;;;;;0.60;0.60;;;16.80;43.40;;;;;;5090231;27;45309;-72
2023/03/29 12:18:33;;;;;;;2.47;0.60;;;16.90;42.70;;;;;;5095975;27;45419;-72
2023/03/29 12:21:01;;;;;;;1.23;0.95;;;16.90;42.70;;;;;;5083722;27;45483;-73
2023/03/29 12:23:29;;;;;;;5.07;1.00;;;16.90;43.30;;;;;;5090128;27;45359;-72
2023/03/29 12:26:01;;;;;;;0.70;0.70;;;17.00;43.00;;;;;;5088227;27;45475;-72
2023/03/29 12:28:46;;;;;;;1.05;0.88;;;17.00;43.00;;;;;;5087216;27;45268;-72
2023/03/29 12:31:14;;;;;;;4.63;1.00;;;17.10;42.80;;;;;;5067595;27;45387;-72
2023/03/29 12:33:57;;;;;;;10.52;1.23;;;17.10;42.80;;;;;;5081263;28;45345;-70
2023/03/29 12:36:35;;;;;;;5.88;0.80;;;17.20;42.70;;;;;;5087246;28;45307;-71
2023/03/29 12:39:02;;;;;;;2.53;1.08;;;17.30;42.40;;;;;;5087501;28;45446;-72
2023/03/29 12:41:35;;;;;;;1.42;0.90;;;17.40;42.20;;;;;;5087906;28;45578;-71
2023/03/29 12:44:02;;;;;;;0.93;0.70;;;17.50;42.00;;;;;;5085952;28;45397;-71
2023/03/29 12:46:31;;;;;;;2.65;1.00;;;17.50;42.00;;;;;;5086426;28;45296;-71
2023/03/29 12:49:04;;;;;;;1.92;0.88;;;17.60;42.00;;;;;;5085164;27;45490;-69
2023/03/29 12:51:32;;;;;;;3.22;0.95;;;17.60;42.00;;;;;;5082249;27;46427;-70
2023/03/29 12:54:03;;;;;;;4.38;1.15;;;17.70;42.00;;;;;;5086990;27;45253;-70
2023/03/29 12:56:39;;;;;;;1.42;1.02;;;17.70;42.00;;;;;;5067520;28;45345;-72